Black Star — 9HA2911 — position and weather

sailwx.info

Track history (hours):
 
Tides and Currents Weather Stations Pressure Air Temp Water Temp Dewpoint Dewpoint Depression Visibility Wind Speed Wind Dir Waves Ship Positions

Black Star

Last reported at 2016-Aug-25 09:22 UTC. Time now 2016-Aug-26 06:43 UTC.
Position N 40°12' W 009°57'.

Length 128 m; draft 7.7 m.

Type: Ship (hazmat cat C). MMSI: 256714000.

Date/timePositionNaut miles runAvg speedWind from/ knotsBaromVisibWave heightAir tempDewpointWater temp
2016-Aug-25 09:22N 40°12' W 009°57'1311.4
2016-Aug-25 08:11N 39°59' W 009°57'4211.4
2016-Aug-25 04:30N 39°17' W 009°56'1111.9
2016-Aug-25 03:33N 39°06' W 009°57'1211.7
2016-Aug-25 02:34N 38°54' W 009°56'1211.9
2016-Aug-25 01:33N 38°42' W 009°56'1211.9
2016-Aug-25 00:33N 38°30' W 009°53'1211.5
2016-Aug-24 23:33N 38°19' W 009°50'1111.1
2016-Aug-24 22:32N 38°08' W 009°47'1111.2
2016-Aug-24 21:33N 37°57' W 009°44'1110.6
2016-Aug-24 20:33N 37°47' W 009°41'1110.8
2016-Aug-24 19:33N 37°36' W 009°38'1111.1
2016-Aug-24 18:33N 37°26' W 009°34'1111.2
2016-Aug-24 17:33N 37°15' W 009°31'1111.0
2016-Aug-24 16:33N 37°04' W 009°28'1111.4
2016-Aug-24 15:33N 36°53' W 009°25'1211.6
2016-Aug-24 14:33N 36°44' W 009°16'5310.2
2016-Aug-24 09:21N 35°52' W 008°60'911.6
2016-Aug-24 08:33N 35°43' W 009°01'4811.9
2016-Aug-24 04:32N 34°56' W 009°06'1212.0
2016-Aug-24 03:33N 34°44' W 009°07'1212.0
2016-Aug-24 02:33N 34°32' W 009°08'1212.3
2016-Aug-24 01:33N 34°20' W 009°10'1212.4
2016-Aug-24 00:33N 34°07' W 009°12'1312.5
2016-Aug-23 23:32N 33°55' W 009°13'1212.5
2016-Aug-23 22:33N 33°42' W 009°15'1412.4
2016-Aug-23 21:23N 33°28' W 009°16'1012.3
2016-Aug-23 20:33N 33°18' W 009°18'1212.4
2016-Aug-23 19:33N 33°05' W 009°19'1212.2
2016-Aug-23 18:33N 32°53' W 009°20'1411.9
2016-Aug-23 17:24N 32°40' W 009°21'22 0.9
2016-Aug-22 17:09N 32°19' W 009°15'1 2.1
2016-Aug-22 16:33N 32°19' W 009°16'3 0.2
2016-Aug-22 02:25N 32°18' W 009°20'0 0.0
2016-Aug-21 23:31N 32°18' W 009°20'0 0.0
2016-Aug-21 22:25N 32°18' W 009°20'0 0.0
2016-Aug-21 21:25N 32°18' W 009°20'0 0.0
2016-Aug-21 18:13N 32°18' W 009°20'0 0.0
2016-Aug-21 16:19N 32°18' W 009°20'0 0.0
2016-Aug-21 15:25N 32°18' W 009°20'0 0.0
2016-Aug-21 14:07N 32°18' W 009°20'0 0.0
2016-Aug-21 13:25N 32°18' W 009°20'0 0.0
2016-Aug-21 11:31N 32°18' W 009°20'0 0.0
2016-Aug-19 11:14N 32°18' W 009°20'14712.5
2016-Aug-18 23:31N 34°25' W 007°50'1613.2
2016-Aug-18 22:20N 34°36' W 007°37'5113.4
2016-Aug-18 18:31N 35°16' W 006°59'1413.0
2016-Aug-18 17:26N 35°25' W 006°46'6411.9
2016-Aug-18 12:04N 35°58' W 005°38'610.7
2016-Aug-18 11:33N 35°60' W 005°31'1010.3
2016-Aug-18 10:33N 36°03' W 005°19'22412.3
2016-Aug-17 16:20N 36°44' W 000°46'3712.8
2016-Aug-17 13:28N 36°51' W 000°01'1212.7
2016-Aug-17 12:33N 36°54' E 000°13'1713.3
2016-Aug-17 11:17N 36°58' E 000°33'6213.1
2016-Aug-17 06:33N 37°12' E 001°49'10113.5
2016-Aug-16 23:03N 37°28' E 003°54'2313.1
2016-Aug-16 21:17N 37°29' E 004°24'4013.5
2016-Aug-16 18:17N 37°31' E 005°14'21113.4
2016-Aug-16 02:30N 37°40' E 009°41'7113.1
2016-Aug-15 21:05N 37°28' E 011°09'1013.1
2016-Aug-15 20:20N 37°24' E 011°20'5013.2
2016-Aug-15 16:33N 37°19' E 012°23'1313.1
2016-Aug-15 15:33N 37°18' E 012°40'1313.1
2016-Aug-15 14:33N 37°17' E 012°56'1412.8
2016-Aug-15 13:26N 37°13' E 013°13'1112.4
2016-Aug-15 12:33N 37°09' E 013°26'1312.2
2016-Aug-15 11:30N 37°03' E 013°40'1212.8
2016-Aug-15 10:33N 36°57' E 013°54'1313.1
2016-Aug-15 09:33N 36°51' E 014°08'  
Track history (hours):
 
Tides and Currents Weather Stations Pressure Air Temp Water Temp Dewpoint Dewpoint Depression Visibility Wind Speed Wind Dir Waves Ship Positions

Black Star

Last reported at 2016-Aug-25 09:22 UTC. Time now 2016-Aug-26 06:43 UTC.
Position N 40°12' W 009°57'.

Length 128 m; draft 7.7 m.

Type: Ship (hazmat cat C). MMSI: 256714000.

Date/timePositionNaut miles runAvg speedWind from/ knotsBaromVisibWave heightAir tempDewpointWater temp
2016-Aug-25 09:22N 40°12' W 009°57'1311.4
2016-Aug-25 08:11N 39°59' W 009°57'4211.4
2016-Aug-25 04:30N 39°17' W 009°56'1111.9
2016-Aug-25 03:33N 39°06' W 009°57'1211.7
2016-Aug-25 02:34N 38°54' W 009°56'1211.9
2016-Aug-25 01:33N 38°42' W 009°56'1211.9
2016-Aug-25 00:33N 38°30' W 009°53'1211.5
2016-Aug-24 23:33N 38°19' W 009°50'1111.1
2016-Aug-24 22:32N 38°08' W 009°47'1111.2
2016-Aug-24 21:33N 37°57' W 009°44'1110.6
2016-Aug-24 20:33N 37°47' W 009°41'1110.8
2016-Aug-24 19:33N 37°36' W 009°38'1111.1
2016-Aug-24 18:33N 37°26' W 009°34'1111.2
2016-Aug-24 17:33N 37°15' W 009°31'1111.0
2016-Aug-24 16:33N 37°04' W 009°28'1111.4
2016-Aug-24 15:33N 36°53' W 009°25'1211.6
2016-Aug-24 14:33N 36°44' W 009°16'5310.2
2016-Aug-24 09:21N 35°52' W 008°60'911.6
2016-Aug-24 08:33N 35°43' W 009°01'4811.9
2016-Aug-24 04:32N 34°56' W 009°06'1212.0
2016-Aug-24 03:33N 34°44' W 009°07'1212.0
2016-Aug-24 02:33N 34°32' W 009°08'1212.3
2016-Aug-24 01:33N 34°20' W 009°10'1212.4
2016-Aug-24 00:33N 34°07' W 009°12'1312.5
2016-Aug-23 23:32N 33°55' W 009°13'1212.5
2016-Aug-23 22:33N 33°42' W 009°15'1412.4
2016-Aug-23 21:23N 33°28' W 009°16'1012.3
2016-Aug-23 20:33N 33°18' W 009°18'1212.4
2016-Aug-23 19:33N 33°05' W 009°19'1212.2
2016-Aug-23 18:33N 32°53' W 009°20'1411.9
2016-Aug-23 17:24N 32°40' W 009°21'22 0.9
2016-Aug-22 17:09N 32°19' W 009°15'1 2.1
2016-Aug-22 16:33N 32°19' W 009°16'3 0.2
2016-Aug-22 02:25N 32°18' W 009°20'0 0.0
2016-Aug-21 23:31N 32°18' W 009°20'0 0.0
2016-Aug-21 22:25N 32°18' W 009°20'0 0.0
2016-Aug-21 21:25N 32°18' W 009°20'0 0.0
2016-Aug-21 18:13N 32°18' W 009°20'0 0.0
2016-Aug-21 16:19N 32°18' W 009°20'0 0.0
2016-Aug-21 15:25N 32°18' W 009°20'0 0.0
2016-Aug-21 14:07N 32°18' W 009°20'0 0.0
2016-Aug-21 13:25N 32°18' W 009°20'0 0.0
2016-Aug-21 11:31N 32°18' W 009°20'0 0.0
2016-Aug-19 11:14N 32°18' W 009°20'14712.5
2016-Aug-18 23:31N 34°25' W 007°50'1613.2
2016-Aug-18 22:20N 34°36' W 007°37'5113.4
2016-Aug-18 18:31N 35°16' W 006°59'1413.0
2016-Aug-18 17:26N 35°25' W 006°46'6411.9
2016-Aug-18 12:04N 35°58' W 005°38'610.7
2016-Aug-18 11:33N 35°60' W 005°31'1010.3
2016-Aug-18 10:33N 36°03' W 005°19'22412.3
2016-Aug-17 16:20N 36°44' W 000°46'3712.8
2016-Aug-17 13:28N 36°51' W 000°01'1212.7
2016-Aug-17 12:33N 36°54' E 000°13'1713.3
2016-Aug-17 11:17N 36°58' E 000°33'6213.1
2016-Aug-17 06:33N 37°12' E 001°49'10113.5
2016-Aug-16 23:03N 37°28' E 003°54'2313.1
2016-Aug-16 21:17N 37°29' E 004°24'4013.5
2016-Aug-16 18:17N 37°31' E 005°14'21113.4
2016-Aug-16 02:30N 37°40' E 009°41'7113.1
2016-Aug-15 21:05N 37°28' E 011°09'1013.1
2016-Aug-15 20:20N 37°24' E 011°20'5013.2
2016-Aug-15 16:33N 37°19' E 012°23'1313.1
2016-Aug-15 15:33N 37°18' E 012°40'1313.1
2016-Aug-15 14:33N 37°17' E 012°56'1412.8
2016-Aug-15 13:26N 37°13' E 013°13'1112.4
2016-Aug-15 12:33N 37°09' E 013°26'1312.2
2016-Aug-15 11:30N 37°03' E 013°40'1212.8
2016-Aug-15 10:33N 36°57' E 013°54'1313.1
2016-Aug-15 09:33N 36°51' E 014°08'  

Dump ship's entire track history